Buoy 53593

sailwx.info

Track history (hours):
 
Tides and Currents Weather Stations Pressure Air Temp Water Temp Dewpoint Dewpoint Depression Visibility Wind Speed Wind Dir Waves Ship Positions

Drifting buoy 53593

Last reported at 2016-May-28 10:00 UTC. Time now 2016-May-28 11:50 UTC.
Position S 15°04' E 107°48'.

Barometer 1011.7 mb
Water temperature 28.6 ° C

Date/timePositionNaut miles runAvg speedWind from/ knotsBaromVisibWave heightAir tempDewpointWater temp
2016-May-28 10:00S 15°04' E 107°48'0 0.0 1011.7 28.6
2016-May-28 07:00S 15°04' E 107°48'2 0.4 1011.1 28.6
2016-May-28 02:00S 15°04' E 107°50'0 0.0 1013.8 28.6
2016-May-28 01:00S 15°04' E 107°50'2 0.5 1013.7 28.6
2016-May-27 22:00S 15°04' E 107°51'2 0.2 1013.2 28.6
2016-May-27 14:00S 15°05' E 107°52'0 0.5 1015.2 28.6
2016-May-27 13:00S 15°05' E 107°52'1 0.1 1015.0 28.6
2016-May-27 05:00S 15°04' E 107°53'1 0.2 1013.4 28.6
2016-May-27 01:00S 15°04' E 107°52'3 0.9 1014.4 28.5
2016-May-26 22:00S 15°02' E 107°55'   1013.0 28.5
Track history (hours):
 
Tides and Currents Weather Stations Pressure Air Temp Water Temp Dewpoint Dewpoint Depression Visibility Wind Speed Wind Dir Waves Ship Positions

Drifting buoy 53593

Last reported at 2016-May-28 10:00 UTC. Time now 2016-May-28 11:50 UTC.
Position S 15°04' E 107°48'.

Barometer 1011.7 mb
Water temperature 28.6 ° C

Date/timePositionNaut miles runAvg speedWind from/ knotsBaromVisibWave heightAir tempDewpointWater temp
2016-May-28 10:00S 15°04' E 107°48'0 0.0 1011.7 28.6
2016-May-28 07:00S 15°04' E 107°48'2 0.4 1011.1 28.6
2016-May-28 02:00S 15°04' E 107°50'0 0.0 1013.8 28.6
2016-May-28 01:00S 15°04' E 107°50'2 0.5 1013.7 28.6
2016-May-27 22:00S 15°04' E 107°51'2 0.2 1013.2 28.6
2016-May-27 14:00S 15°05' E 107°52'0 0.5 1015.2 28.6
2016-May-27 13:00S 15°05' E 107°52'1 0.1 1015.0 28.6
2016-May-27 05:00S 15°04' E 107°53'1 0.2 1013.4 28.6
2016-May-27 01:00S 15°04' E 107°52'3 0.9 1014.4 28.5
2016-May-26 22:00S 15°02' E 107°55'   1013.0 28.5

Dump ship's entire track history